Timeline UpdatesTrip UpdatesNews PostsPvt PostsTravel TipsAdmin PostsConv PostsFollowed PostsChat RequestsBlog PostsPNR Posts

Disclaimer
Search
 
 
Fri Aug 22, 2014 03:29:45 ISTHomeTrainsΣChainsAtlasPNRForumGalleryNewsFAQTripsMembersLoginFeedback
No Recent News for this Train
Other Trains in the News **new
Latest...
Will stop at Ramanagaram, according to IRCTC
Tue Mar 11, 2014 (07:35PM)
⇐ Return Journey: Train# 16209

16210/Mysore-Ajmer Express

Mar 11 2014 (10:33AM)
Change Departure Station:
Change Arrival Station:
Post a Train Travel TipPost a Train Travel Tip **new
Post a Comment/Question/Picture/VideoPost a Comment/Question/Picture/Video
Pantry/Catering
✓ Pantry Car Avbl
✓ Catering Avbl
RSA - Rake Sharing
16217/16218 Mysore-Shirdi Express
Rake/Coach Composition
LOCO-SLR-GEN-GEN-A1-A2-B1-B2-S1-S2-S3-PC-S4-S5-S6-S7-S8-S9-S10-S11-S12-S13-GEN-SLR; Total 23 coaches
Loco
UBL WDP-4/4B No Loco Change at Pune / Ahmedabad
News    PNR    Forum    Time-Table    Availability    Fare Chart    Map    Arr/Dep History    Trips    Gallery    ΣChains    X/O    Timeline    
Travel Time: 2h 13m    1 halts    Distance: 95 km    Avg Speed: 42 km/hr
Type: Mail/Express
Zone: SWR/South Western
Departs @ 04:45 (Avg 31m late)
Platform# ???
   W F 
Haveri/HVR 
Arrives @ 06:58 (Avg 27m late)
Platform# 1
   W F 
Dharwad/DWR 

1 halts. 13 intermediate Stations between Haveri and Dharwad

Show ALL intermediate Stations  Show Old Time-Table

#CodeStation NameX/OArrivesAvgDepartsAvgHaltPFDay#KmSpeedElevZoneAddress
1MYSMysore Junction (6)  -18:00+351-532.054760mSWRTel No 0821-2521751.URL: www.mysorerailwaystation.in, Karnataka
2MYAMandya (3)  18:49+2218:50+241m--1-487.753672mSWRMandya, Karnataka
3RMGMRamanagaram (4)X  19:45+3419:46+331m21-439.124692mSWRRamanagaram, Karnataka
4SBCBangalore City Junction (10)O  21:35+821:55+720m81-394.834903mSWRBengaluru-560023, Karnataka
5YPRYesvantpur Junction (6)22:05+922:07+92m--1-389.269919mSWRBengaluru 560022, Karnataka
6TKTumkur (3)  23:03+823:05+92m11-325.271823mSWRTumkur, Karnataka
7TTRTiptur (4)  00:05+1200:06+131m22-254.239860mSWRTiptur, Karnataka
8ASKArsikere Junction (3)  00:45+300:50+75m--2-228.756816mSWRArsikere, Karnataka
9RRBBirur Junction (3)  01:38+201:40+42m--2-183.764802mSWRBirur, Karnataka
10DVGDavangere (2)  03:27+2803:30+273m--2-68.743598mSWRDavanagere, Karnataka
11HRRHarihar (3)  03:48+2703:50+272m--2-55.958553mSWRHarihar, Karnataka
12RNRRanibennur (3)  04:14+2604:15+271m--2-32.567583mSWRRanebennur, Karnataka
13HVR»Haveri (3)»  04:44+3104:45+311m--20.045558mSWRHaveri, Karnataka
14UBLHubli Junction (5)  06:25+1406:35+2310m1275.152640mSWRHubli - 580020, Karnataka
15DWR•Dharwad (4)•  06:58+2707:00+272m1295.251737mSWRDharwad 580001, Karnataka
16LDLonda Junction (3)  08:23+2308:25+242m22165.644643mSWRLonda, Karnataka
17BGMBelgaum (3)X  09:35+2209:40+275m12216.946752mSWRBelgaum 590001, Karnataka
18MRJMiraj Junction (6)  12:40+312:45+135m12354.337554mCRMiraj 416410, Maharashtra
19SLISangli (3)  12:57+1613:00+173m12361.669559mCRSangli, Maharashtra
20KRDKarad (3)  13:59+1814:00+201m12429.659597mCRDist- Satara., Maharashtra
21STRSatara (3)  15:00+2515:03+263m12488.240637mCRSatara, Maharashtra
22PUNEPune Junction (6)  18:40+118:50+710m32633.955556mCRPune 411001, Maharashtra
23LNLLonavala (3)  19:59+220:00+61m22697.535623mCRLonavala 410401, Maharashtra
24KJTKarjat Junction (4)X  20:49+920:50+121m22726.25657mCRKarjat, Maharashtra
25KYNKalyan Junction (8)  21:40+1221:45+105m72773.04510mCRKalyan 421301, Maharashtra
26BIRDBhiwandi Road (4)  22:09+1222:10+141m42791.04126mCRBhiwandi, Maharashtra
27BSRVasai Road (7)  22:50+1222:55+125m62818.3647mWRVasai 401202, Maharashtra
28VAPIVapi (3)X  00:49+1500:50+161m--3939.46327mWRVapi, Gujarat
29BLValsad (3)X  01:15+1501:16+201m23965.64615mWRValsad, Gujarat
30STSurat (4)  02:45+202:55+110m131034.37919mWRSurat 395001, Gujarat
31BHBharuch Junction (5)  03:40+803:41+91m331093.67419mWRBharuch, Gujarat
32BRCVadodara Junction (7)  04:38+1804:55+1717m231164.16536mWRVadodara 390005, Gujarat
33ANNDAnand Junction (6)  05:28+505:29+51m--31199.96944mWRAnand, Gujarat
34NDNadiad Junction (4)X  05:45+1405:46+161m--31218.44637mWRNadiad, Gujarat
35ADIAhmedabad Junction (12)  06:45+3307:05+3820m331263.93351mWRAhmedabad, Gujarat
36MSHMahesana Junction (6)  09:19+1309:20+161m231336.95095mWRMehsana, Gujarat
37PNUPalanpur Junction (5)  10:38+910:40+162m131401.949216mWRPalanpur, Gujarat
38ABRAbu Road (3)XO  11:45+2111:55+2410m231454.566264mNWRSirohi Dist, Rajasthan
39SOHSirohi Road (2)  12:35+3312:36+361m--31498.465369mNWRPindwara, Rajasthan
40FAFalna (2)  13:27+3913:28+401m131553.464282mNWRFalna, Rajasthan
41MJMarwar Junction (4)  14:30+3914:32+422m--31619.966267mNWRMarwar Junction, Rajasthan
42SODSojat Road (2)  14:51+4614:52+481m--31640.845295mNWRSojat Road, Rajasthan
43BERBeawar (2)  16:20+3116:21+331m--31707.345447mNWRBeawar, Rajasthan
44AIIAjmer Junction (5)  17:30+15-331759.5-464mNWRPin: 305001, Rajasthan
Scroll to Top
Scroll to Bottom